Time;durP1;ratioP1;P1;durP2;ratioP2;P2;SDS_P1;SDS_P2;PMS_P1;PMS_P2;Temp;Humidity;BMP_temperature;BMP_pressure;BME280_temperature;BME280_humidity;BME280_pressure;Samples;Min_cycle;Max_cycle;Signal;HPM_P1;HPM_P2
2022/01/10 00:01:07;;;;;;;31.03;6.43;;;-0.80;88.40;;;;;;5056924;28;20504;-72
2022/01/10 00:03:33;;;;;;;26.20;6.28;;;-0.80;88.40;;;;;;5054760;28;20295;-72
2022/01/10 00:05:59;;;;;;;23.87;6.77;;;-0.90;88.40;;;;;;5041074;28;20378;-72
2022/01/10 00:08:25;;;;;;;28.07;6.40;;;-0.90;88.50;;;;;;5059125;28;20507;-72
2022/01/10 00:10:51;;;;;;;28.55;7.00;;;-0.90;88.40;;;;;;5064246;28;20392;-72
2022/01/10 00:13:17;;;;;;;28.25;6.45;;;-0.90;88.40;;;;;;5028745;28;20043;-72
2022/01/10 00:15:44;;;;;;;29.05;7.45;;;-0.90;88.50;;;;;;5038606;28;20108;-73
2022/01/10 00:18:11;;;;;;;30.05;7.47;;;-1.00;88.50;;;;;;5049621;28;20071;-72
2022/01/10 00:20:37;;;;;;;31.42;6.95;;;-1.00;88.40;;;;;;5049684;28;20040;-72
2022/01/10 00:23:04;;;;;;;32.38;6.88;;;-1.00;88.50;;;;;;5039387;28;20100;-72
2022/01/10 00:25:29;;;;;;;26.58;6.65;;;-1.00;88.50;;;;;;5049131;28;20048;-73
2022/01/10 00:27:56;;;;;;;31.13;8.70;;;-1.00;88.50;;;;;;5033834;28;20040;-73
2022/01/10 00:30:23;;;;;;;30.55;7.47;;;-1.00;88.40;;;;;;5051516;28;20049;-72
2022/01/10 00:32:50;;;;;;;38.92;8.23;;;-0.90;88.60;;;;;;5065760;28;20032;-72
2022/01/10 00:35:16;;;;;;;39.90;8.85;;;-0.80;88.50;;;;;;5066832;28;20044;-73
2022/01/10 00:37:43;;;;;;;32.53;8.63;;;-0.80;88.50;;;;;;5041950;28;20032;-72
2022/01/10 00:40:14;;;;;;;33.95;8.18;;;-0.70;88.50;;;;;;5038214;28;20562;-73
2022/01/10 00:42:40;;;;;;;31.08;8.20;;;-0.70;88.60;;;;;;5043852;28;20048;-73
2022/01/10 00:45:17;;;;;;;38.53;8.57;;;-0.70;88.60;;;;;;5057315;28;20041;-72
2022/01/10 00:47:45;;;;;;;29.13;7.97;;;-0.70;88.60;;;;;;5018218;28;20412;-72
2022/01/10 00:50:13;;;;;;;31.15;8.60;;;-0.70;88.60;;;;;;5055237;28;20040;-73
2022/01/10 00:52:38;;;;;;;38.67;8.77;;;-0.60;88.70;;;;;;5065788;28;20028;-73
2022/01/10 00:55:05;;;;;;;31.13;7.50;;;-0.70;88.60;;;;;;5058830;28;20110;-72
2022/01/10 00:57:30;;;;;;;35.30;8.40;;;-0.70;88.70;;;;;;5047979;28;20044;-73
2022/01/10 00:59:56;;;;;;;38.17;9.20;;;-0.70;88.70;;;;;;5026569;28;20063;-73
2022/01/10 01:02:25;;;;;;;35.40;8.63;;;-0.60;88.60;;;;;;5015275;28;20094;-73
2022/01/10 01:04:52;;;;;;;31.35;8.75;;;-0.60;88.70;;;;;;5042204;28;20080;-73
2022/01/10 01:07:18;;;;;;;27.42;8.43;;;-0.70;88.70;;;;;;5075088;28;20049;-73
2022/01/10 01:09:50;;;;;;;39.23;9.03;;;-0.70;88.70;;;;;;5043040;28;20407;-73
2022/01/10 01:12:31;;;;;;;35.63;9.30;;;-0.80;88.60;;;;;;5046413;28;20327;-73
2022/01/10 01:15:07;;;;;;;28.20;8.45;;;-0.80;88.60;;;;;;5047946;28;20044;-72
2022/01/10 01:17:36;;;;;;;31.02;8.55;;;-0.90;88.60;;;;;;5039033;28;20033;-72
2022/01/10 01:20:27;;;;;;;32.53;10.32;;;-0.80;88.70;;;;;;5051362;28;20044;-73
2022/01/10 01:25:36;;;;;;;34.33;9.02;;;-0.80;88.70;;;;;;5049118;28;20094;-72
2022/01/10 01:28:02;;;;;;;37.87;9.53;;;-0.80;88.70;;;;;;5031678;28;20045;-72
2022/01/10 01:30:27;;;;;;;29.00;9.17;;;-0.80;88.70;;;;;;5017788;28;20106;-72
2022/01/10 01:32:53;;;;;;;29.00;9.77;;;-0.80;88.70;;;;;;5036124;28;20044;-72
2022/01/10 01:35:24;;;;;;;38.87;9.63;;;-0.80;88.70;;;;;;5023474;28;20045;-72
2022/01/10 01:37:49;;;;;;;35.45;10.25;;;-0.90;88.70;;;;;;5034554;28;20057;-72
2022/01/10 01:40:15;;;;;;;38.37;9.00;;;-0.90;88.80;;;;;;5042406;28;20558;-72
2022/01/10 01:42:43;;;;;;;45.93;10.63;;;-0.90;88.70;;;;;;5035177;28;20045;-72
2022/01/10 01:45:11;;;;;;;38.08;9.43;;;-0.90;88.70;;;;;;5032939;28;20048;-72
2022/01/10 01:47:38;;;;;;;38.72;9.65;;;-0.90;88.80;;;;;;5048252;28;20523;-72
2022/01/10 01:50:07;;;;;;;29.55;8.05;;;-1.00;88.80;;;;;;5035416;28;20041;-72
2022/01/10 01:52:33;;;;;;;30.38;8.80;;;-1.00;88.70;;;;;;5038429;28;20033;-72
2022/01/10 01:54:59;;;;;;;32.00;8.13;;;-1.10;88.70;;;;;;5048167;28;20044;-72
2022/01/10 01:57:25;;;;;;;34.22;9.30;;;-1.20;88.70;;;;;;5048753;28;20098;-73
2022/01/10 01:59:51;;;;;;;39.08;11.27;;;-1.30;88.70;;;;;;5045688;28;20101;-72
2022/01/10 02:02:17;;;;;;;31.83;9.77;;;-1.30;88.60;;;;;;5033796;28;20127;-72
2022/01/10 02:04:43;;;;;;;29.33;8.83;;;-1.30;88.70;;;;;;5040426;28;20094;-72
2022/01/10 02:07:09;;;;;;;28.93;9.50;;;-1.40;88.60;;;;;;5020351;28;20048;-72
2022/01/10 02:09:35;;;;;;;33.63;9.67;;;-1.40;88.70;;;;;;5057182;28;20082;-72
2022/01/10 02:12:01;;;;;;;33.55;9.43;;;-1.40;88.60;;;;;;5027468;28;20087;-72
2022/01/10 02:14:26;;;;;;;28.50;9.20;;;-1.40;88.70;;;;;;5050648;28;20037;-72
2022/01/10 02:16:56;;;;;;;38.60;9.13;;;-1.40;88.60;;;;;;5018991;28;20047;-72
2022/01/10 02:19:23;;;;;;;34.35;9.75;;;-1.40;88.80;;;;;;5035237;28;20049;-72
2022/01/10 02:21:49;;;;;;;35.85;9.00;;;-1.40;88.80;;;;;;5041920;28;20467;-72
2022/01/10 02:24:15;;;;;;;39.03;10.03;;;-1.30;88.70;;;;;;5046387;28;20071;-72
2022/01/10 02:26:45;;;;;;;42.67;10.43;;;-1.40;88.80;;;;;;5046242;28;20511;-72
2022/01/10 02:29:11;;;;;;;43.10;11.68;;;-1.40;88.80;;;;;;5048241;28;20404;-72
2022/01/10 02:31:39;;;;;;;52.23;13.63;;;-1.30;88.80;;;;;;5041570;28;20037;-72
2022/01/10 02:34:05;;;;;;;46.85;12.25;;;-1.30;88.80;;;;;;5044551;28;20101;-72
2022/01/10 02:36:31;;;;;;;56.83;13.33;;;-1.30;88.70;;;;;;5059203;28;20456;-72
2022/01/10 02:39:02;;;;;;;55.00;13.30;;;-1.30;88.90;;;;;;5037097;28;20040;-72
2022/01/10 02:41:34;;;;;;;45.38;14.00;;;-1.30;88.70;;;;;;5033571;28;20489;-72
2022/01/10 02:44:02;;;;;;;56.10;12.88;;;-1.30;88.80;;;;;;5067913;28;20044;-73
2022/01/10 02:46:35;;;;;;;63.88;16.00;;;-1.40;88.80;;;;;;5054724;28;20055;-73
2022/01/10 02:49:07;;;;;;;45.08;12.32;;;-1.40;88.80;;;;;;5038433;28;20076;-72
2022/01/10 02:51:33;;;;;;;60.45;14.55;;;-1.40;88.80;;;;;;5065135;28;20036;-72
2022/01/10 02:53:58;;;;;;;40.20;12.07;;;-1.40;88.70;;;;;;5037467;28;20052;-72
2022/01/10 02:56:24;;;;;;;47.63;13.97;;;-1.50;88.90;;;;;;5047056;28;20595;-72
2022/01/10 02:58:50;;;;;;;55.30;13.80;;;-1.50;88.70;;;;;;5040030;28;20497;-72
2022/01/10 03:01:17;;;;;;;46.87;11.77;;;-1.50;88.80;;;;;;5020057;28;20185;-72
2022/01/10 03:03:42;;;;;;;45.83;13.02;;;-1.50;88.80;;;;;;5032069;28;20044;-72
2022/01/10 03:06:08;;;;;;;49.00;13.17;;;-1.60;88.70;;;;;;5026942;28;20444;-72
2022/01/10 03:08:34;;;;;;;44.83;13.47;;;-1.60;88.90;;;;;;5017990;28;20182;-72
2022/01/10 03:11:00;;;;;;;48.90;13.67;;;-1.60;88.80;;;;;;5049775;28;20452;-72
2022/01/10 03:13:26;;;;;;;52.55;14.15;;;-1.60;88.90;;;;;;5055451;28;20055;-72
2022/01/10 03:15:52;;;;;;;46.67;12.90;;;-1.60;88.90;;;;;;5053133;28;20040;-72
2022/01/10 03:18:17;;;;;;;65.60;16.77;;;-1.60;88.80;;;;;;5059163;28;20049;-72
2022/01/10 03:20:43;;;;;;;54.97;15.93;;;-1.70;88.80;;;;;;5028683;28;20124;-72
2022/01/10 03:23:09;;;;;;;70.73;17.33;;;-1.70;88.80;;;;;;5069222;28;20047;-72
2022/01/10 03:25:35;;;;;;;95.93;20.48;;;-1.70;88.80;;;;;;5044708;28;20032;-72
2022/01/10 03:28:01;;;;;;;60.70;17.40;;;-1.70;88.80;;;;;;5062848;28;20054;-72
2022/01/10 03:30:28;;;;;;;88.30;19.83;;;-1.70;88.80;;;;;;5065580;28;20062;-72
2022/01/10 03:32:56;;;;;;;310.65;34.25;;;-1.70;88.90;;;;;;5046604;28;20040;-72
2022/01/10 03:35:22;;;;;;;117.20;22.05;;;-1.70;88.80;;;;;;5049340;28;20123;-72
2022/01/10 03:37:48;;;;;;;472.77;43.22;;;-1.70;88.80;;;;;;5062395;28;20515;-72
2022/01/10 03:40:13;;;;;;;239.70;28.70;;;-1.70;88.80;;;;;;5029469;28;20050;-72
2022/01/10 03:42:39;;;;;;;185.63;22.83;;;-1.70;88.80;;;;;;5031908;28;20500;-72
2022/01/10 03:45:07;;;;;;;183.03;18.67;;;-1.80;88.90;;;;;;5044464;28;20040;-72
2022/01/10 03:47:32;;;;;;;193.63;21.70;;;-1.80;88.80;;;;;;5039620;28;20056;-72
2022/01/10 03:49:58;;;;;;;119.90;19.50;;;-1.80;88.70;;;;;;5047421;28;20051;-73
2022/01/10 03:52:25;;;;;;;109.23;20.43;;;-1.80;88.80;;;;;;5055528;28;20131;-72
2022/01/10 03:54:51;;;;;;;49.60;15.48;;;-1.80;88.80;;;;;;5048625;28;20071;-72
2022/01/10 03:57:17;;;;;;;63.13;18.67;;;-1.80;88.90;;;;;;5049895;28;20095;-72
2022/01/10 03:59:42;;;;;;;126.97;20.90;;;-1.90;88.80;;;;;;5026556;28;20057;-72
2022/01/10 04:02:08;;;;;;;84.17;20.73;;;-1.90;88.90;;;;;;5028766;28;20539;-72
2022/01/10 04:04:36;;;;;;;125.60;24.13;;;-1.90;88.90;;;;;;5037593;28;20041;-72
2022/01/10 04:07:03;;;;;;;130.15;23.08;;;-1.90;88.80;;;;;;5033439;28;20079;-72
2022/01/10 04:09:29;;;;;;;100.78;20.17;;;-1.90;88.80;;;;;;5041475;28;20044;-72
2022/01/10 04:11:55;;;;;;;248.27;31.83;;;-1.90;88.80;;;;;;5044189;28;20033;-72
2022/01/10 04:14:20;;;;;;;117.67;22.70;;;-1.90;88.70;;;;;;5039339;28;20098;-73
2022/01/10 04:16:46;;;;;;;111.33;20.33;;;-1.90;88.80;;;;;;5041243;28;20036;-73
2022/01/10 04:19:12;;;;;;;177.80;26.07;;;-1.90;88.80;;;;;;5058340;28;20044;-72
2022/01/10 04:21:37;;;;;;;83.80;20.30;;;-2.00;88.80;;;;;;5060008;28;20114;-73
2022/01/10 04:24:03;;;;;;;134.97;23.43;;;-2.00;88.80;;;;;;5045840;28;20060;-73
2022/01/10 04:26:30;;;;;;;155.60;25.83;;;-2.00;88.80;;;;;;5035303;28;20052;-73
2022/01/10 04:28:55;;;;;;;91.53;21.67;;;-2.00;88.90;;;;;;5037054;28;20047;-73
2022/01/10 04:31:21;;;;;;;95.47;19.77;;;-2.00;88.90;;;;;;5052541;28;20123;-73
2022/01/10 04:33:47;;;;;;;104.20;20.73;;;-2.00;88.80;;;;;;5055025;28;20036;-72
2022/01/10 04:36:12;;;;;;;110.50;22.20;;;-2.00;88.90;;;;;;5009707;28;20049;-72
2022/01/10 04:38:42;;;;;;;167.27;27.70;;;-2.00;88.80;;;;;;5062681;28;20040;-72
2022/01/10 04:41:08;;;;;;;62.60;20.92;;;-2.00;88.80;;;;;;5035371;28;20040;-72
2022/01/10 04:43:35;;;;;;;124.88;24.60;;;-2.00;88.80;;;;;;5061432;28;20095;-72
2022/01/10 04:46:01;;;;;;;86.15;22.63;;;-2.00;88.80;;;;;;5018032;28;20057;-73
2022/01/10 04:48:27;;;;;;;106.10;23.50;;;-2.00;88.90;;;;;;5050361;28;20040;-73
2022/01/10 04:53:18;;;;;;;98.30;23.27;;;-2.00;88.90;;;;;;5037411;28;20049;-73
2022/01/10 04:55:45;;;;;;;92.57;22.93;;;-2.00;88.80;;;;;;5067689;28;20350;-73
2022/01/10 04:58:11;;;;;;;99.63;25.65;;;-2.00;88.80;;;;;;5033452;28;20068;-73
2022/01/10 05:00:37;;;;;;;130.67;28.23;;;-2.00;88.90;;;;;;5062312;28;20079;-72
2022/01/10 05:03:02;;;;;;;308.73;36.97;;;-2.00;88.90;;;;;;5041860;28;20048;-72
2022/01/10 05:05:28;;;;;;;234.90;34.27;;;-2.00;88.90;;;;;;5053388;28;20036;-72
2022/01/10 05:07:54;;;;;;;174.60;33.30;;;-2.00;88.90;;;;;;5054868;28;20100;-72
2022/01/10 05:10:20;;;;;;;113.13;24.87;;;-2.00;88.80;;;;;;5041086;28;20104;-72
2022/01/10 05:12:46;;;;;;;328.50;40.07;;;-2.10;88.90;;;;;;5052936;28;20124;-72
2022/01/10 05:15:11;;;;;;;214.02;35.08;;;-2.10;88.90;;;;;;5035979;28;20124;-72
2022/01/10 05:17:37;;;;;;;128.73;28.93;;;-2.00;88.90;;;;;;5017498;28;20041;-72
2022/01/10 05:20:05;;;;;;;272.77;35.43;;;-2.00;88.90;;;;;;5033875;28;20509;-72
2022/01/10 05:22:30;;;;;;;231.02;38.53;;;-2.00;88.90;;;;;;5067815;28;20135;-72
2022/01/10 05:24:56;;;;;;;164.77;31.47;;;-2.00;88.90;;;;;;5034773;28;20132;-72
2022/01/10 05:27:22;;;;;;;113.07;25.57;;;-1.90;89.00;;;;;;5071440;28;20037;-73
2022/01/10 05:29:48;;;;;;;123.20;28.87;;;-1.90;88.90;;;;;;5045283;28;20037;-72
2022/01/10 05:32:14;;;;;;;149.25;31.98;;;-1.90;89.00;;;;;;5036084;28;20861;-72
2022/01/10 05:34:40;;;;;;;83.57;27.93;;;-1.90;89.00;;;;;;5053758;28;20096;-73
2022/01/10 05:37:05;;;;;;;148.07;32.83;;;-1.90;88.90;;;;;;5051349;28;20078;-73
2022/01/10 05:39:31;;;;;;;94.40;26.63;;;-1.90;89.00;;;;;;5034561;28;20080;-72
2022/01/10 05:41:57;;;;;;;290.20;39.73;;;-1.90;89.00;;;;;;5012331;28;20040;-73
2022/01/10 05:44:23;;;;;;;149.90;32.27;;;-1.90;88.90;;;;;;5035362;28;20036;-72
2022/01/10 05:46:49;;;;;;;339.58;49.60;;;-1.80;89.00;;;;;;5029435;28;20091;-72
2022/01/10 05:49:18;;;;;;;203.95;33.20;;;-1.90;88.90;;;;;;5029471;28;20057;-73
2022/01/10 05:51:44;;;;;;;142.35;29.77;;;-1.90;88.90;;;;;;5046065;28;20068;-73
2022/01/10 05:54:10;;;;;;;137.47;31.17;;;-1.90;89.00;;;;;;5020771;28;20468;-73
2022/01/10 05:56:36;;;;;;;88.80;28.13;;;-1.90;89.00;;;;;;5025951;28;20052;-73
2022/01/10 05:59:02;;;;;;;104.83;23.60;;;-1.90;88.90;;;;;;5006199;28;20041;-72
2022/01/10 06:01:29;;;;;;;129.43;26.27;;;-1.90;88.90;;;;;;5037550;28;20048;-72
2022/01/10 06:03:54;;;;;;;151.55;27.83;;;-1.90;88.90;;;;;;5075213;28;20037;-72
2022/01/10 06:06:20;;;;;;;135.77;25.33;;;-1.90;89.00;;;;;;5038187;28;20037;-72
2022/01/10 06:08:46;;;;;;;101.37;26.90;;;-1.90;88.90;;;;;;5054508;28;20063;-72
2022/01/10 06:11:11;;;;;;;152.80;30.30;;;-1.90;88.90;;;;;;5037814;28;20036;-73
2022/01/10 06:13:37;;;;;;;142.50;28.63;;;-1.90;89.00;;;;;;5044408;28;20420;-72
2022/01/10 06:16:04;;;;;;;105.70;29.30;;;-1.90;88.90;;;;;;5027517;28;20033;-73
2022/01/10 06:18:29;;;;;;;146.18;31.98;;;-1.90;88.90;;;;;;5042229;28;20548;-72
2022/01/10 06:20:55;;;;;;;200.03;37.90;;;-1.90;89.00;;;;;;5036212;28;20041;-72
2022/01/10 06:23:21;;;;;;;154.47;29.47;;;-1.90;88.90;;;;;;5049212;28;20041;-72
2022/01/10 06:25:47;;;;;;;127.15;31.27;;;-1.90;88.90;;;;;;5041152;28;20040;-73
2022/01/10 06:28:14;;;;;;;217.47;36.50;;;-1.90;89.00;;;;;;5037208;28;20043;-72
2022/01/10 06:30:40;;;;;;;84.95;25.90;;;-1.90;88.90;;;;;;5032804;28;20045;-72
2022/01/10 06:33:06;;;;;;;132.10;31.57;;;-1.90;89.00;;;;;;5050313;28;20047;-72
2022/01/10 06:35:32;;;;;;;109.40;32.17;;;-1.90;88.90;;;;;;5010684;28;20097;-72
2022/01/10 06:37:58;;;;;;;112.67;28.63;;;-2.00;88.90;;;;;;5033537;28;20501;-72
2022/01/10 06:40:23;;;;;;;98.50;27.83;;;-2.00;88.90;;;;;;5063541;28;20287;-73
2022/01/10 06:42:50;;;;;;;89.90;27.57;;;-2.00;88.90;;;;;;5066438;28;20117;-72
2022/01/10 06:45:15;;;;;;;103.78;29.33;;;-2.00;89.00;;;;;;5052403;28;20052;-72
2022/01/10 06:47:41;;;;;;;134.83;32.17;;;-2.00;88.90;;;;;;5023469;28;20063;-72
2022/01/10 06:50:08;;;;;;;110.00;31.70;;;-2.00;88.90;;;;;;5045740;28;20103;-72
2022/01/10 06:52:34;;;;;;;68.43;24.52;;;-2.00;88.90;;;;;;5049666;28;20068;-72
2022/01/10 06:55:00;;;;;;;52.77;21.80;;;-2.10;88.90;;;;;;5030346;28;20043;-72
2022/01/10 06:57:26;;;;;;;86.55;26.77;;;-2.10;88.90;;;;;;5046883;28;20447;-73
2022/01/10 06:59:52;;;;;;;79.95;28.67;;;-2.10;88.90;;;;;;5063949;28;20088;-72
2022/01/10 07:02:18;;;;;;;142.13;32.63;;;-2.10;88.80;;;;;;5032095;28;20076;-72
2022/01/10 07:04:45;;;;;;;178.57;34.92;;;-2.10;89.00;;;;;;5033049;28;20473;-72
2022/01/10 07:07:10;;;;;;;123.65;31.02;;;-2.20;88.90;;;;;;5036891;28;20120;-72
2022/01/10 07:09:36;;;;;;;109.17;29.13;;;-2.20;89.00;;;;;;5037814;28;20116;-72
2022/01/10 07:12:03;;;;;;;139.13;30.63;;;-2.20;88.90;;;;;;5050181;28;20542;-72
2022/01/10 07:14:31;;;;;;;116.20;26.85;;;-2.20;88.90;;;;;;5055788;28;20037;-72
2022/01/10 07:16:57;;;;;;;92.43;26.90;;;-2.30;88.90;;;;;;5049422;28;20041;-72
2022/01/10 07:19:23;;;;;;;79.20;24.20;;;-2.30;88.90;;;;;;5041917;28;20100;-72
2022/01/10 07:21:49;;;;;;;159.25;33.00;;;-2.30;88.90;;;;;;5025733;28;20045;-72
2022/01/10 07:24:15;;;;;;;47.03;20.25;;;-2.30;88.90;;;;;;5012421;28;20477;-72
2022/01/10 07:26:41;;;;;;;84.70;26.20;;;-2.40;88.90;;;;;;5033943;28;20044;-72
2022/01/10 07:29:07;;;;;;;95.20;29.27;;;-2.40;88.90;;;;;;5046192;28;20041;-72
2022/01/10 07:31:35;;;;;;;116.55;30.02;;;-2.40;88.90;;;;;;5044446;28;20555;-72
2022/01/10 07:34:02;;;;;;;115.18;28.08;;;-2.40;88.90;;;;;;5036027;28;20045;-72
2022/01/10 07:36:28;;;;;;;79.75;27.30;;;-2.40;88.80;;;;;;5044540;28;20033;-72
2022/01/10 07:38:54;;;;;;;87.88;30.00;;;-2.50;89.00;;;;;;5034049;28;20047;-72
2022/01/10 07:41:20;;;;;;;74.00;31.40;;;-2.50;88.90;;;;;;5033180;28;20044;-72
2022/01/10 07:43:45;;;;;;;66.27;29.60;;;-2.50;88.90;;;;;;5048967;28;20104;-72
2022/01/10 07:46:11;;;;;;;65.93;29.57;;;-2.50;89.00;;;;;;5034577;28;20053;-72
2022/01/10 07:48:39;;;;;;;63.27;28.70;;;-2.50;88.90;;;;;;5041663;28;20441;-72
2022/01/10 07:51:08;;;;;;;70.25;27.05;;;-2.50;88.90;;;;;;5043629;28;20099;-72
2022/01/10 07:53:35;;;;;;;60.50;27.92;;;-2.50;89.00;;;;;;5048327;28;20073;-72
2022/01/10 07:56:02;;;;;;;53.33;26.50;;;-2.50;88.90;;;;;;5034487;28;20069;-72
2022/01/10 07:58:28;;;;;;;59.83;29.17;;;-2.50;88.90;;;;;;5049780;28;20090;-72
2022/01/10 08:00:54;;;;;;;75.28;32.50;;;-2.50;88.90;;;;;;5042140;28;20045;-73
2022/01/10 08:03:20;;;;;;;75.67;32.77;;;-2.50;88.90;;;;;;5007989;28;20500;-72
2022/01/10 08:05:46;;;;;;;80.23;33.73;;;-2.50;88.90;;;;;;5023271;28;20040;-72
2022/01/10 08:08:11;;;;;;;63.97;28.93;;;-2.50;88.90;;;;;;5020902;28;20045;-72
2022/01/10 08:10:37;;;;;;;68.80;29.67;;;-2.50;88.90;;;;;;5044035;28;20037;-73
2022/01/10 08:13:03;;;;;;;67.07;29.20;;;-2.50;89.00;;;;;;5048038;28;20585;-72
2022/01/10 08:15:30;;;;;;;66.88;29.27;;;-2.50;89.00;;;;;;5032586;28;20071;-72
2022/01/10 08:17:57;;;;;;;56.78;28.00;;;-2.50;88.90;;;;;;5069235;28;20520;-72
2022/01/10 08:20:22;;;;;;;50.70;27.02;;;-2.50;88.90;;;;;;5027671;28;20079;-72
2022/01/10 08:22:48;;;;;;;52.00;27.07;;;-2.50;89.00;;;;;;5021362;28;20580;-73
2022/01/10 08:25:14;;;;;;;57.93;29.23;;;-2.50;89.00;;;;;;5039851;28;20040;-72
2022/01/10 08:27:40;;;;;;;57.60;29.33;;;-2.40;88.90;;;;;;5040603;28;20072;-73
2022/01/10 08:30:06;;;;;;;81.17;40.90;;;-2.40;89.00;;;;;;5033899;28;20512;-73
2022/01/10 08:32:33;;;;;;;88.38;44.83;;;-2.40;88.90;;;;;;5050622;28;20405;-73
2022/01/10 08:34:58;;;;;;;79.47;40.65;;;-2.40;89.00;;;;;;5059928;28;20036;-72
2022/01/10 08:37:24;;;;;;;64.27;32.57;;;-2.40;88.90;;;;;;5039710;28;20047;-72
2022/01/10 08:39:51;;;;;;;50.73;29.87;;;-2.30;88.90;;;;;;5021244;28;20377;-72
2022/01/10 08:42:18;;;;;;;60.80;31.30;;;-2.30;89.00;;;;;;5051800;28;20055;-72
2022/01/10 08:44:44;;;;;;;63.78;32.90;;;-2.20;89.00;;;;;;5052027;28;20037;-72
2022/01/10 08:47:10;;;;;;;66.13;33.33;;;-2.20;89.00;;;;;;5022202;28;20067;-72
2022/01/10 08:49:35;;;;;;;80.93;35.37;;;-2.10;89.00;;;;;;5040977;28;20061;-73
2022/01/10 08:52:01;;;;;;;84.40;37.77;;;-2.00;89.00;;;;;;5071170;28;20040;-73
2022/01/10 08:54:27;;;;;;;96.87;39.73;;;-1.90;89.20;;;;;;5046835;28;20496;-73
2022/01/10 08:56:53;;;;;;;133.90;47.10;;;-1.80;89.10;;;;;;5055934;28;20090;-72
2022/01/10 08:59:20;;;;;;;247.40;59.13;;;-1.70;89.10;;;;;;5060167;28;20044;-72
2022/01/10 09:01:46;;;;;;;194.63;57.35;;;-1.70;89.10;;;;;;5055006;28;20044;-72
2022/01/10 09:04:16;;;;;;;193.18;60.70;;;-1.60;89.10;;;;;;5047003;28;20074;-73
2022/01/10 09:06:46;;;;;;;154.55;55.67;;;-1.60;89.20;;;;;;5035260;28;20036;-73
2022/01/10 09:09:12;;;;;;;138.25;51.78;;;-1.50;89.10;;;;;;5070091;28;20044;-73
2022/01/10 09:11:40;;;;;;;102.45;43.92;;;-1.40;89.20;;;;;;5058294;28;20032;-73
2022/01/10 09:14:06;;;;;;;97.07;42.97;;;-1.40;89.20;;;;;;5051413;28;20111;-72
2022/01/10 09:16:32;;;;;;;101.97;43.75;;;-1.40;89.20;;;;;;5045537;28;20040;-72
2022/01/10 09:18:57;;;;;;;104.10;44.42;;;-1.30;89.20;;;;;;5045449;28;20121;-73
2022/01/10 09:21:23;;;;;;;112.53;47.10;;;-1.30;89.20;;;;;;5046675;28;20044;-72
2022/01/10 09:23:49;;;;;;;109.10;45.10;;;-1.30;89.30;;;;;;5028658;28;20032;-73
2022/01/10 09:26:15;;;;;;;105.30;47.30;;;-1.20;89.30;;;;;;5040439;28;20044;-72
2022/01/10 09:28:43;;;;;;;97.43;44.22;;;-1.20;89.20;;;;;;5044204;28;20442;-72
2022/01/10 09:31:09;;;;;;;111.03;45.22;;;-1.10;89.30;;;;;;5044369;28;20540;-72
2022/01/10 09:33:35;;;;;;;117.35;47.03;;;-1.10;89.20;;;;;;5060142;28;20042;-72
2022/01/10 09:36:01;;;;;;;116.07;46.10;;;-1.00;89.40;;;;;;5042616;28;20040;-72
2022/01/10 09:38:27;;;;;;;106.15;45.38;;;-1.00;89.30;;;;;;5046823;28;20067;-72
2022/01/10 09:40:54;;;;;;;114.40;45.13;;;-0.90;89.40;;;;;;5062301;28;20067;-72
2022/01/10 09:43:19;;;;;;;98.93;43.88;;;-0.90;89.30;;;;;;5064035;28;20061;-73
2022/01/10 09:45:45;;;;;;;100.33;45.20;;;-0.80;89.30;;;;;;5027373;28;20146;-73
2022/01/10 09:48:11;;;;;;;97.05;42.42;;;-0.70;89.40;;;;;;5059839;28;20127;-73
2022/01/10 09:50:37;;;;;;;93.97;41.70;;;-0.70;89.30;;;;;;5043608;28;20092;-73
2022/01/10 09:53:04;;;;;;;104.23;45.43;;;-0.70;89.30;;;;;;5061716;28;20062;-73
2022/01/10 09:55:31;;;;;;;94.15;42.53;;;-0.60;89.40;;;;;;5062706;28;20504;-73
2022/01/10 09:57:58;;;;;;;102.53;45.65;;;-0.60;89.40;;;;;;5031552;28;20040;-73
2022/01/10 10:00:24;;;;;;;110.00;45.53;;;-0.50;89.50;;;;;;5062779;28;20111;-73
2022/01/10 10:02:50;;;;;;;102.60;43.95;;;-0.40;89.40;;;;;;5030033;28;20033;-74
2022/01/10 10:05:17;;;;;;;110.30;46.27;;;-0.40;89.40;;;;;;5019272;28;20043;-73
2022/01/10 10:07:43;;;;;;;81.32;40.05;;;-0.30;89.40;;;;;;5056246;28;20173;-73
2022/01/10 10:10:13;;;;;;;95.47;44.50;;;-0.30;89.40;;;;;;5062717;28;20152;-73
2022/01/10 10:12:47;;;;;;;91.93;43.65;;;-0.20;89.50;;;;;;5044062;28;20036;-73
2022/01/10 10:15:17;;;;;;;82.95;42.90;;;-0.10;89.50;;;;;;5058229;28;20036;-73
2022/01/10 10:17:44;;;;;;;81.72;41.65;;;-0.10;89.40;;;;;;5062306;28;20421;-77
2022/01/10 10:20:12;;;;;;;95.88;45.35;;;0.00;89.60;;;;;;5018460;28;20048;-73
2022/01/10 10:22:46;;;;;;;92.93;45.90;;;0.10;89.50;;;;;;5063803;28;20055;-73
2022/01/10 10:25:13;;;;;;;75.88;42.28;;;0.10;89.60;;;;;;5034346;28;20488;-73
2022/01/10 10:27:41;;;;;;;77.70;42.13;;;0.10;89.60;;;;;;5051372;28;20139;-74
2022/01/10 10:30:16;;;;;;;92.10;42.25;;;0.20;89.50;;;;;;5045466;28;20068;-74
2022/01/10 10:32:42;;;;;;;101.63;44.97;;;0.30;89.50;;;;;;5076427;28;20036;-74
2022/01/10 10:35:09;;;;;;;79.97;41.33;;;0.30;89.50;;;;;;5032767;28;20060;-73
2022/01/10 10:37:37;;;;;;;102.93;45.30;;;0.40;89.50;;;;;;5008182;28;20071;-73
2022/01/10 10:40:07;;;;;;;98.07;43.88;;;0.40;89.60;;;;;;5020459;28;20054;-74
2022/01/10 10:42:33;;;;;;;85.90;43.75;;;0.50;89.60;;;;;;5027280;28;20098;-74
2022/01/10 10:45:14;;;;;;;86.32;42.95;;;0.60;89.50;;;;;;5042693;28;20044;-74
2022/01/10 10:47:43;;;;;;;84.43;42.05;;;0.70;89.60;;;;;;5055529;28;20063;-74
2022/01/10 10:50:11;;;;;;;78.32;42.95;;;0.70;89.60;;;;;;5036540;28;20519;-74
2022/01/10 10:52:39;;;;;;;88.07;45.97;;;0.80;89.60;;;;;;5041149;28;20040;-74
2022/01/10 10:55:14;;;;;;;88.55;44.70;;;0.90;89.60;;;;;;5062113;28;20037;-74
2022/01/10 10:57:42;;;;;;;89.65;44.65;;;1.00;89.70;;;;;;5040517;28;20064;-73
2022/01/10 11:00:12;;;;;;;76.60;40.53;;;1.10;89.60;;;;;;5064157;28;20044;-75
2022/01/10 11:02:39;;;;;;;72.47;39.72;;;1.20;89.70;;;;;;5066310;28;20062;-74
2022/01/10 11:05:06;;;;;;;83.38;43.38;;;1.20;89.70;;;;;;5037131;28;20061;-73
2022/01/10 11:07:34;;;;;;;67.85;38.72;;;1.30;89.70;;;;;;5033237;28;20094;-74
2022/01/10 11:10:03;;;;;;;81.35;42.38;;;1.40;89.70;;;;;;5053763;28;20139;-74
2022/01/10 11:12:29;;;;;;;77.88;41.88;;;1.40;89.80;;;;;;5033897;28;20085;-74
2022/01/10 11:14:59;;;;;;;73.88;39.97;;;1.50;89.70;;;;;;5040874;28;20136;-73
2022/01/10 11:17:26;;;;;;;89.13;45.75;;;1.60;89.70;;;;;;5037132;28;20044;-73
2022/01/10 11:20:07;;;;;;;68.57;39.03;;;1.70;89.80;;;;;;5041395;28;20044;-73
2022/01/10 11:22:33;;;;;;;64.72;37.80;;;1.80;89.80;;;;;;5047406;28;20535;-74
2022/01/10 11:24:59;;;;;;;59.92;36.22;;;1.90;89.80;;;;;;5052277;28;20052;-73
2022/01/10 11:27:43;;;;;;;69.60;37.83;;;2.00;89.80;;;;;;5031438;28;20039;-73
2022/01/10 11:30:29;;;;;;;69.45;38.75;;;2.10;89.80;;;;;;5048039;28;20048;-74
2022/01/10 11:33:03;;;;;;;80.70;41.78;;;2.20;89.90;;;;;;5063219;28;20071;-74
2022/01/10 11:35:36;;;;;;;62.55;36.15;;;2.20;89.80;;;;;;5049835;28;20044;-74
2022/01/10 11:38:41;;;;;;;65.97;37.50;;;2.30;89.80;;;;;;5042863;28;20122;-74
2022/01/10 11:41:28;;;;;;;53.75;33.17;;;2.40;89.90;;;;;;5058272;28;20111;-75
2022/01/10 11:43:54;;;;;;;78.20;42.50;;;2.40;89.90;;;;;;5039458;28;20464;-74
2022/01/10 11:46:27;;;;;;;62.75;35.20;;;2.50;89.80;;;;;;5041457;28;20040;-74
2022/01/10 11:49:02;;;;;;;55.35;34.17;;;2.60;89.80;;;;;;5062390;28;20083;-74
2022/01/10 11:51:34;;;;;;;66.13;36.88;;;2.60;89.90;;;;;;5057456;28;20044;-74
2022/01/10 11:54:09;;;;;;;53.10;31.88;;;2.70;89.90;;;;;;5068215;28;20068;-74
2022/01/10 11:56:38;;;;;;;78.70;40.35;;;2.80;90.00;;;;;;5046433;28;20040;-74
2022/01/10 11:59:19;;;;;;;63.70;33.90;;;2.80;90.00;;;;;;5048015;28;20048;-74
2022/01/10 12:01:53;;;;;;;56.30;32.92;;;2.90;89.90;;;;;;5045344;28;20139;-74
2022/01/10 12:04:20;;;;;;;80.28;38.47;;;3.00;89.80;;;;;;5058122;28;20462;-74
2022/01/10 12:06:46;;;;;;;53.90;31.85;;;3.00;89.90;;;;;;5052006;28;20553;-74
2022/01/10 12:09:12;;;;;;;49.33;30.00;;;3.10;89.90;;;;;;5068766;28;20028;-75
2022/01/10 12:11:39;;;;;;;61.92;33.70;;;3.10;89.90;;;;;;5058548;28;20097;-74
2022/01/10 12:14:09;;;;;;;60.15;33.75;;;3.10;89.90;;;;;;5059654;28;20433;-74
2022/01/10 12:16:36;;;;;;;50.35;29.95;;;3.20;90.00;;;;;;5047416;28;20058;-74
2022/01/10 12:19:03;;;;;;;56.58;33.05;;;3.30;89.90;;;;;;5044501;28;20411;-74
2022/01/10 12:21:29;;;;;;;57.13;33.45;;;3.30;89.90;;;;;;5056406;28;20040;-74
2022/01/10 12:23:55;;;;;;;55.78;32.50;;;3.40;89.90;;;;;;5051568;28;20040;-74
2022/01/10 12:26:23;;;;;;;56.13;32.03;;;3.40;89.90;;;;;;5059718;28;20071;-74
2022/01/10 12:28:51;;;;;;;55.67;32.80;;;3.50;89.90;;;;;;5057070;28;20453;-74
2022/01/10 12:31:19;;;;;;;64.13;34.55;;;3.50;90.00;;;;;;5041620;28;20032;-74
2022/01/10 12:33:46;;;;;;;56.00;32.10;;;3.60;89.90;;;;;;5039153;28;20147;-74